Time;durP1;ratioP1;P1;durP2;ratioP2;P2;SDS_P1;SDS_P2;PMS_P1;PMS_P2;Temp;Humidity;BMP_temperature;BMP_pressure;BME280_temperature;BME280_humidity;BME280_pressure;Samples;Min_cycle;Max_cycle;Signal;HPM_P1;HPM_P2
2022/08/07 00:01:10;;;;;;;10.53;9.53;;;;;;;20.12;100.00;99289.03;1713168;83;20994;-74
2022/08/07 00:03:36;;;;;;;11.25;9.33;;;;;;;20.10;100.00;99276.44;1711922;83;21010;-74
2022/08/07 00:06:03;;;;;;;11.57;9.83;;;;;;;20.06;100.00;99287.38;1718109;83;21836;-74
2022/08/07 00:08:30;;;;;;;14.13;10.50;;;;;;;20.02;100.00;99285.47;1714914;83;20954;-74
2022/08/07 00:10:56;;;;;;;10.20;9.20;;;;;;;20.01;100.00;99282.47;1714139;83;21104;-74
2022/08/07 00:13:23;;;;;;;10.45;9.63;;;;;;;19.98;100.00;99280.59;1714485;83;21182;-74
2022/08/07 00:15:50;;;;;;;10.00;9.10;;;;;;;19.98;100.00;99286.72;1708950;83;20982;-74
2022/08/07 00:18:21;;;;;;;9.75;8.85;;;;;;;19.98;100.00;99283.23;1714524;83;21497;-74
2022/08/07 00:20:50;;;;;;;9.85;8.98;;;;;;;19.98;100.00;99281.92;1716878;83;21517;-74
2022/08/07 00:23:17;;;;;;;10.80;9.90;;;;;;;20.00;100.00;99277.31;1714795;83;20982;-73
2022/08/07 00:25:43;;;;;;;10.35;9.50;;;;;;;20.02;100.00;99280.67;1712831;83;21104;-74
2022/08/07 00:28:10;;;;;;;10.00;9.00;;;;;;;20.03;100.00;99284.50;1712974;83;21018;-74
2022/08/07 00:30:36;;;;;;;10.00;8.93;;;;;;;20.03;100.00;99286.31;1712627;83;21268;-74
2022/08/07 00:33:04;;;;;;;10.40;9.48;;;;;;;20.03;100.00;99290.27;1713693;83;21151;-74
2022/08/07 00:35:30;;;;;;;11.38;10.20;;;;;;;20.01;100.00;99290.39;1713739;83;21453;-74
2022/08/07 00:37:58;;;;;;;11.70;10.60;;;;;;;20.00;100.00;99287.88;1714135;83;20981;-73
2022/08/07 00:40:26;;;;;;;10.78;9.80;;;;;;;19.97;100.00;99285.52;1712362;82;21595;-74
2022/08/07 00:42:53;;;;;;;11.22;10.20;;;;;;;19.93;100.00;99291.53;1714858;83;21232;-74
2022/08/07 00:45:20;;;;;;;15.72;11.18;;;;;;;19.89;100.00;99290.94;1716295;83;21009;-74
2022/08/07 00:47:48;;;;;;;12.30;11.20;;;;;;;19.89;100.00;99288.78;1717322;83;21073;-74
2022/08/07 00:50:14;;;;;;;12.33;11.33;;;;;;;19.88;100.00;99295.86;1714788;83;21069;-74
2022/08/07 00:52:41;;;;;;;11.65;10.65;;;;;;;19.85;100.00;99294.79;1714175;83;21462;-74
2022/08/07 00:55:08;;;;;;;11.43;10.40;;;;;;;19.79;100.00;99297.92;1709634;83;21061;-74
2022/08/07 00:57:35;;;;;;;12.25;9.80;;;;;;;19.71;100.00;99302.17;1711700;83;21517;-74
2022/08/07 01:00:04;;;;;;;11.90;10.70;;;;;;;19.65;100.00;99300.02;1712883;83;21105;-74
2022/08/07 01:02:31;;;;;;;11.53;10.45;;;;;;;19.63;100.00;99302.78;1711224;83;21034;-74
2022/08/07 01:04:58;;;;;;;9.83;9.08;;;;;;;19.65;100.00;99307.94;1712648;83;21010;-74
2022/08/07 01:07:27;;;;;;;11.97;9.30;;;;;;;19.65;100.00;99313.22;1715315;81;21533;-74
2022/08/07 01:09:53;;;;;;;10.75;9.75;;;;;;;19.65;100.00;99310.58;1719050;83;21140;-73
2022/08/07 01:12:20;;;;;;;12.00;9.78;;;;;;;19.66;100.00;99311.77;1717373;83;21076;-74
2022/08/07 01:14:47;;;;;;;10.68;9.73;;;;;;;19.67;100.00;99316.09;1688097;83;20989;-74
2022/08/07 01:17:13;;;;;;;11.22;9.38;;;;;;;19.66;100.00;99311.77;1715829;83;21549;-74
2022/08/07 01:19:40;;;;;;;10.13;9.10;;;;;;;19.65;100.00;99311.42;1712664;83;21759;-74
2022/08/07 01:22:08;;;;;;;10.63;9.53;;;;;;;19.66;100.00;99312.25;1715603;83;21441;-74
2022/08/07 01:24:37;;;;;;;10.55;9.50;;;;;;;19.67;100.00;99312.61;1715540;83;21045;-74
2022/08/07 01:27:04;;;;;;;10.43;9.63;;;;;;;19.67;100.00;99304.22;1716815;81;21033;-74
2022/08/07 01:29:32;;;;;;;10.48;9.58;;;;;;;19.65;100.00;99309.26;1718583;83;21454;-74
2022/08/07 01:32:00;;;;;;;10.18;9.38;;;;;;;19.65;100.00;99303.98;1718692;82;21787;-74
2022/08/07 01:34:32;;;;;;;9.98;9.10;;;;;;;19.64;100.00;99306.26;1694014;83;21009;-74
2022/08/07 01:37:00;;;;;;;11.48;10.32;;;;;;;19.63;100.00;99302.78;1715221;82;21041;-74
2022/08/07 01:39:28;;;;;;;10.85;9.88;;;;;;;19.61;100.00;99302.06;1719317;83;21006;-74
2022/08/07 01:41:57;;;;;;;9.03;8.30;;;;;;;19.62;100.00;99301.11;1710182;83;21545;-74
2022/08/07 01:44:26;;;;;;;9.85;9.00;;;;;;;19.63;100.00;99305.91;1715522;83;21851;-74
2022/08/07 01:46:52;;;;;;;10.93;9.95;;;;;;;19.63;100.00;99307.22;1715790;83;21010;-74
2022/08/07 01:49:19;;;;;;;10.53;9.48;;;;;;;19.61;100.00;99301.59;1692643;83;20978;-74
2022/08/07 01:51:47;;;;;;;10.38;9.45;;;;;;;19.57;100.00;99306.78;1713220;83;21159;-74
2022/08/07 01:54:15;;;;;;;10.60;9.68;;;;;;;19.55;100.00;99302.11;1713230;83;21072;-74
2022/08/07 01:56:52;;;;;;;9.73;8.90;;;;;;;19.54;100.00;99299.11;1690032;83;21685;-74
2022/08/07 01:59:44;;;;;;;11.60;10.68;;;;;;;19.51;100.00;99301.16;1689713;83;21203;-74
2022/08/07 02:02:15;;;;;;;11.55;10.15;;;;;;;19.46;100.00;99307.23;1718516;83;20977;-74
2022/08/07 02:04:47;;;;;;;11.95;9.63;;;;;;;19.40;100.00;99305.09;1713611;83;21010;-74
2022/08/07 02:07:15;;;;;;;10.03;9.13;;;;;;;19.35;100.00;99304.64;1714666;83;21037;-75
2022/08/07 02:09:44;;;;;;;10.10;9.05;;;;;;;19.32;100.00;99308.84;1712049;83;21532;-75
2022/08/07 02:12:17;;;;;;;12.85;9.45;;;;;;;19.30;100.00;99305.00;1667885;83;20982;-74
2022/08/07 02:14:49;;;;;;;11.63;9.98;;;;;;;19.29;100.00;99304.64;1710181;83;21038;-73
2022/08/07 02:17:17;;;;;;;10.93;9.83;;;;;;;19.28;100.00;99306.92;1714760;83;20970;-73
2022/08/07 02:19:46;;;;;;;10.13;9.13;;;;;;;19.28;100.00;99309.56;1712994;83;21049;-74
2022/08/07 02:22:13;;;;;;;10.25;9.38;;;;;;;19.25;100.00;99311.95;1712564;83;21713;-74
2022/08/07 02:24:42;;;;;;;9.48;8.53;;;;;;;19.25;100.00;99308.00;1700714;83;21080;-74
2022/08/07 02:27:11;;;;;;;10.70;9.73;;;;;;;19.24;100.00;99316.03;1711957;83;21043;-73
2022/08/07 02:29:38;;;;;;;10.48;9.45;;;;;;;19.25;100.00;99308.48;1714871;82;21037;-74
2022/08/07 02:32:06;;;;;;;13.70;9.60;;;;;;;19.27;100.00;99311.83;1719306;83;21025;-74
2022/08/07 02:34:34;;;;;;;10.45;8.65;;;;;;;19.27;100.00;99305.23;1711208;83;21903;-74
2022/08/07 02:37:02;;;;;;;11.05;9.25;;;;;;;19.28;100.00;99304.28;1710682;83;21482;-74
2022/08/07 02:39:30;;;;;;;10.85;9.78;;;;;;;19.28;100.00;99305.60;1712713;83;20966;-74
2022/08/07 02:41:57;;;;;;;10.72;9.73;;;;;;;19.26;100.00;99305.72;1686838;83;21009;-74
2022/08/07 02:44:24;;;;;;;10.10;9.15;;;;;;;19.27;100.00;99306.08;1711524;83;21613;-73
2022/08/07 02:46:52;;;;;;;9.88;8.98;;;;;;;19.30;100.00;99310.27;1711460;83;21228;-74
2022/08/07 02:49:19;;;;;;;13.05;11.68;;;;;;;19.33;100.00;99309.20;1712526;83;21434;-74
2022/08/07 02:51:46;;;;;;;12.00;10.85;;;;;;;19.34;100.00;99316.15;1716243;83;21012;-74
2022/08/07 02:54:12;;;;;;;11.18;10.08;;;;;;;19.33;100.00;99310.52;1712334;82;20985;-74
2022/08/07 02:56:39;;;;;;;11.00;10.10;;;;;;;19.37;100.00;99315.91;1714056;83;21041;-74
2022/08/07 02:59:09;;;;;;;10.82;9.33;;;;;;;19.40;100.00;99320.43;1693519;83;21103;-74
2022/08/07 03:01:37;;;;;;;10.90;9.80;;;;;;;19.44;100.00;99326.30;1714448;81;21025;-73
2022/08/07 03:04:08;;;;;;;11.53;10.43;;;;;;;19.51;100.00;99330.17;1715015;83;21001;-74
2022/08/07 03:06:35;;;;;;;12.33;11.00;;;;;;;19.60;100.00;99323.66;1717959;83;21013;-74
2022/08/07 03:09:04;;;;;;;13.62;10.00;;;;;;;19.71;100.00;99321.48;1709793;83;21077;-74
2022/08/07 03:11:32;;;;;;;12.18;10.40;;;;;;;19.86;100.00;99318.06;1715770;83;21169;-74
2022/08/07 03:14:01;;;;;;;11.97;10.28;;;;;;;20.03;100.00;99324.59;1713926;83;21029;-74
2022/08/07 03:16:30;;;;;;;11.20;10.08;;;;;;;20.20;100.00;99320.90;1717875;83;20989;-74
2022/08/07 03:18:58;;;;;;;10.05;9.03;;;;;;;20.43;100.00;99321.65;1711086;83;20981;-74
2022/08/07 03:21:24;;;;;;;10.28;9.13;;;;;;;20.66;100.00;99313.09;1712480;83;20986;-73
2022/08/07 03:23:56;;;;;;;10.68;9.63;;;;;;;20.90;100.00;99310.99;1713121;82;21512;-74
2022/08/07 03:26:25;;;;;;;10.05;8.65;;;;;;;21.13;100.00;99318.25;1713379;83;21014;-74
2022/08/07 03:28:54;;;;;;;14.40;9.40;;;;;;;21.40;100.00;99316.32;1716674;83;21505;-74
2022/08/07 03:31:22;;;;;;;12.13;9.93;;;;;;;21.69;100.00;99317.71;1716099;83;21686;-74
2022/08/07 03:33:59;;;;;;;11.10;9.88;;;;;;;21.95;100.00;99318.85;1712383;83;21030;-74
2022/08/07 03:36:27;;;;;;;13.03;10.08;;;;;;;22.20;100.00;99324.08;1712127;83;21239;-74
2022/08/07 03:38:58;;;;;;;10.70;9.58;;;;;;;22.47;100.00;99320.70;1685427;84;21066;-74
2022/08/07 03:41:25;;;;;;;11.45;9.33;;;;;;;22.75;100.00;99324.27;1712837;83;21025;-74
2022/08/07 03:43:53;;;;;;;10.05;9.05;;;;;;;22.97;100.00;99326.60;1715193;83;21073;-74
2022/08/07 03:46:20;;;;;;;10.70;9.43;;;;;;;23.21;100.00;99332.69;1668343;84;20974;-74
2022/08/07 03:48:49;;;;;;;9.98;9.00;;;;;;;23.46;97.84;99334.31;1692083;83;21482;-74
2022/08/07 03:51:15;;;;;;;10.03;9.03;;;;;;;23.68;95.83;99329.45;1717588;83;21078;-74
2022/08/07 03:53:42;;;;;;;11.70;9.70;;;;;;;23.94;93.38;99332.70;1693983;83;20990;-74
2022/08/07 03:56:09;;;;;;;11.08;9.70;;;;;;;24.18;90.82;99334.73;1711011;83;21522;-74
2022/08/07 03:58:36;;;;;;;12.73;11.05;;;;;;;24.38;89.39;99334.41;1713733;83;21529;-74
2022/08/07 04:01:03;;;;;;;10.70;9.80;;;;;;;24.64;87.07;99338.42;1717984;83;21276;-74
2022/08/07 04:03:31;;;;;;;11.15;9.43;;;;;;;24.91;85.49;99337.44;1718039;83;20969;-74
2022/08/07 04:05:58;;;;;;;10.60;9.43;;;;;;;25.18;83.79;99332.95;1715930;83;21076;-74
2022/08/07 04:08:24;;;;;;;10.35;9.28;;;;;;;25.43;81.36;99333.85;1700129;83;21096;-74
2022/08/07 04:10:52;;;;;;;11.43;10.43;;;;;;;25.63;80.15;99333.45;1715860;83;21026;-74
2022/08/07 04:13:20;;;;;;;10.48;9.58;;;;;;;25.89;79.12;99341.83;1714234;83;21098;-74
2022/08/07 04:15:47;;;;;;;16.82;10.93;;;;;;;26.18;77.34;99334.70;1689032;83;21092;-74
2022/08/07 04:18:14;;;;;;;12.33;9.88;;;;;;;26.47;75.50;99339.05;1689078;83;21080;-74
2022/08/07 04:20:41;;;;;;;10.72;9.73;;;;;;;26.73;73.66;99339.69;1712803;83;20989;-74
2022/08/07 04:23:08;;;;;;;14.87;10.20;;;;;;;26.95;72.11;99342.67;1714115;83;21018;-74
2022/08/07 04:25:37;;;;;;;18.32;9.80;;;;;;;27.06;71.21;99342.28;1711847;82;21804;-74
2022/08/07 04:28:07;;;;;;;9.95;8.20;;;;;;;27.10;70.07;99347.63;1716011;82;21572;-74
2022/08/07 04:30:34;;;;;;;8.50;7.80;;;;;;;27.11;69.87;99358.63;1667275;84;21093;-74
2022/08/07 04:33:08;;;;;;;9.80;9.00;;;;;;;27.17;69.27;99357.12;1712186;82;20990;-74
2022/08/07 04:35:36;;;;;;;9.85;9.03;;;;;;;27.15;69.49;99355.12;1694864;83;21037;-74
2022/08/07 04:38:06;;;;;;;9.45;8.65;;;;;;;27.17;69.27;99355.28;1719006;83;21134;-74
2022/08/07 04:40:35;;;;;;;9.80;9.10;;;;;;;27.29;68.61;99355.22;1712478;83;20978;-74
2022/08/07 04:43:02;;;;;;;9.00;8.20;;;;;;;27.39;67.16;99355.83;1718947;83;21187;-74
2022/08/07 04:45:49;;;;;;;8.98;8.28;;;;;;;27.52;65.91;99362.47;1716263;83;21025;-74
2022/08/07 04:48:47;;;;;;;9.05;8.35;;;;;;;27.61;65.18;99361.44;1715080;83;21028;-74
2022/08/07 04:51:43;;;;;;;9.18;8.38;;;;;;;27.65;65.26;99355.58;1714296;83;21121;-74
2022/08/07 04:54:21;;;;;;;10.00;8.95;;;;;;;27.85;64.84;99365.81;1711148;83;21133;-74
2022/08/07 04:57:11;;;;;;;9.63;8.70;;;;;;;28.08;63.62;99366.67;1718732;83;21056;-74
2022/08/07 04:59:52;;;;;;;11.68;8.60;;;;;;;28.15;63.90;99371.64;1717894;83;21544;-74
2022/08/07 05:02:30;;;;;;;9.88;9.08;;;;;;;28.33;63.19;99373.54;1714385;83;21091;-75
2022/08/07 05:05:31;;;;;;;9.83;9.00;;;;;;;28.48;62.96;99377.59;1713718;83;21244;-75
2022/08/07 05:08:06;;;;;;;9.93;9.10;;;;;;;28.67;62.34;99375.73;1711784;83;20962;-75
2022/08/07 05:10:39;;;;;;;10.53;9.73;;;;;;;28.74;61.58;99373.17;1715129;81;21453;-75
2022/08/07 05:13:11;;;;;;;10.13;9.38;;;;;;;28.67;61.30;99375.73;1715609;83;21030;-75
2022/08/07 05:15:41;;;;;;;10.38;9.48;;;;;;;28.60;61.23;99376.63;1713710;83;21017;-75
2022/08/07 05:18:22;;;;;;;11.50;10.60;;;;;;;28.53;61.27;99370.36;1690090;82;21777;-74
2022/08/07 05:20:54;;;;;;;10.85;10.05;;;;;;;28.54;61.30;99376.87;1716394;83;21073;-74
2022/08/07 05:23:51;;;;;;;12.28;11.25;;;;;;;28.61;61.86;99376.45;1712537;82;21039;-75
2022/08/07 05:26:20;;;;;;;10.90;9.90;;;;;;;28.83;61.72;99374.77;1715553;82;21025;-75
2022/08/07 05:28:54;;;;;;;11.03;10.00;;;;;;;29.03;60.75;99375.06;1712037;83;21502;-75
2022/08/07 05:31:25;;;;;;;10.65;9.78;;;;;;;29.13;60.52;99378.31;1709317;83;21434;-74
2022/08/07 05:33:52;;;;;;;10.60;9.70;;;;;;;29.18;59.62;99373.75;1718296;83;20978;-75
2022/08/07 05:36:21;;;;;;;10.50;9.58;;;;;;;29.10;59.61;99380.85;1692131;83;21026;-75
2022/08/07 05:38:47;;;;;;;12.80;10.38;;;;;;;28.99;60.01;99377.78;1707409;83;21009;-75
2022/08/07 05:41:14;;;;;;;10.82;9.83;;;;;;;28.97;60.43;99378.50;1717208;83;21046;-74
2022/08/07 05:43:40;;;;;;;15.70;10.05;;;;;;;28.96;60.43;99379.52;1711451;83;21114;-74
2022/08/07 05:46:07;;;;;;;9.78;8.78;;;;;;;28.87;60.71;99377.92;1711613;83;21148;-74
2022/08/07 05:48:34;;;;;;;9.48;8.78;;;;;;;28.78;61.26;99381.14;1687521;83;21038;-74
2022/08/07 05:51:01;;;;;;;10.28;9.30;;;;;;;28.73;61.14;99380.38;1710515;83;21081;-74
2022/08/07 05:53:29;;;;;;;9.33;8.50;;;;;;;28.65;60.93;99383.11;1696718;83;20985;-74
2022/08/07 05:55:56;;;;;;;14.85;9.18;;;;;;;28.55;61.32;99382.55;1711841;83;21764;-74
2022/08/07 05:58:23;;;;;;;10.38;9.48;;;;;;;28.44;61.79;99385.13;1712100;83;21341;-74
2022/08/07 06:00:50;;;;;;;10.03;9.05;;;;;;;28.35;62.80;99382.72;1715478;83;21029;-74
2022/08/07 06:03:19;;;;;;;10.28;9.28;;;;;;;28.35;63.42;99384.06;1711521;83;20998;-74
2022/08/07 06:05:46;;;;;;;10.18;9.28;;;;;;;28.40;63.16;99389.68;1714694;83;21077;-74
2022/08/07 06:08:14;;;;;;;9.90;9.10;;;;;;;28.36;62.61;99381.71;1713999;82;21785;-74
2022/08/07 06:10:42;;;;;;;12.70;9.45;;;;;;;28.26;62.77;99389.13;1716319;82;20977;-74
2022/08/07 06:13:09;;;;;;;10.30;9.48;;;;;;;28.22;62.88;99385.98;1714401;83;21093;-74
2022/08/07 06:15:37;;;;;;;10.60;9.70;;;;;;;28.22;63.43;99387.82;1715582;83;21080;-74
2022/08/07 06:18:04;;;;;;;10.78;9.88;;;;;;;28.22;63.75;99385.98;1714397;83;20974;-74
2022/08/07 06:20:34;;;;;;;11.70;9.50;;;;;;;28.18;63.79;99383.83;1715522;83;21204;-74
2022/08/07 06:23:01;;;;;;;10.18;9.18;;;;;;;28.08;64.71;99388.89;1713278;82;21182;-74
2022/08/07 06:25:29;;;;;;;9.98;9.25;;;;;;;28.05;64.44;99383.89;1712569;83;21612;-73
2022/08/07 06:28:06;;;;;;;10.63;9.63;;;;;;;27.95;65.03;99381.97;1718576;83;21546;-73
2022/08/07 06:30:36;;;;;;;10.03;9.33;;;;;;;27.88;65.21;99381.00;1711585;83;20978;-74
2022/08/07 06:33:05;;;;;;;11.93;10.08;;;;;;;27.84;65.65;99378.34;1712647;83;21263;-74
2022/08/07 06:35:34;;;;;;;10.23;9.20;;;;;;;27.82;66.14;99380.86;1715654;83;21107;-74
2022/08/07 06:38:01;;;;;;;9.73;8.83;;;;;;;27.76;66.05;99377.08;1711168;83;21065;-73
2022/08/07 06:40:29;;;;;;;10.30;9.05;;;;;;;27.68;65.86;99381.12;1709089;83;21022;-73
2022/08/07 06:42:56;;;;;;;9.30;8.38;;;;;;;27.58;66.64;99381.85;1709352;83;21089;-74
2022/08/07 06:45:39;;;;;;;9.48;8.55;;;;;;;27.52;66.63;99390.02;1637814;86;21254;-73
2022/08/07 06:48:08;;;;;;;8.98;8.08;;;;;;;27.48;67.42;99391.87;1639199;87;20951;-73
2022/08/07 06:50:37;;;;;;;11.78;9.30;;;;;;;27.51;67.50;99376.33;1676822;85;21042;-73
2022/08/07 06:53:04;;;;;;;8.20;7.50;;;;;;;27.58;68.15;99377.31;1712352;83;21045;-74
2022/08/07 06:55:32;;;;;;;7.17;6.67;;;;;;;27.68;67.41;99369.09;1719283;83;20973;-74
2022/08/07 06:58:05;;;;;;;7.22;6.55;;;;;;;27.75;64.96;99376.75;1674382;83;21104;-74
2022/08/07 07:00:36;;;;;;;7.40;6.72;;;;;;;27.73;64.92;99374.25;1712625;83;21077;-74
2022/08/07 07:03:02;;;;;;;7.12;6.22;;;;;;;27.74;64.78;99373.75;1714560;83;21093;-74
2022/08/07 07:05:29;;;;;;;6.42;5.92;;;;;;;27.78;64.64;99369.69;1690325;83;21030;-75
2022/08/07 07:07:56;;;;;;;8.55;6.25;;;;;;;27.83;63.98;99371.34;1689176;83;21069;-75
2022/08/07 07:10:32;;;;;;;7.53;6.35;;;;;;;27.86;63.31;99373.66;1708072;83;21106;-75
2022/08/07 07:13:17;;;;;;;9.15;6.60;;;;;;;27.87;62.70;99373.98;1713942;83;20993;-74
2022/08/07 07:15:47;;;;;;;6.75;6.10;;;;;;;27.88;62.54;99378.83;1712571;83;21056;-74
2022/08/07 07:18:24;;;;;;;6.67;6.17;;;;;;;27.92;62.28;99380.15;1711320;83;21133;-75
2022/08/07 07:21:02;;;;;;;6.37;5.87;;;;;;;27.96;62.21;99382.30;1712927;83;21127;-74
2022/08/07 07:23:29;;;;;;;7.00;6.45;;;;;;;27.95;60.78;99381.97;1713704;83;21130;-74
2022/08/07 07:25:59;;;;;;;6.92;6.25;;;;;;;27.96;62.29;99382.30;1714387;83;21089;-74
2022/08/07 07:28:36;;;;;;;6.58;6.08;;;;;;;27.98;62.78;99384.77;1712069;82;21057;-74
2022/08/07 07:31:08;;;;;;;6.67;6.10;;;;;;;28.02;62.97;99384.75;1714275;83;21100;-74
2022/08/07 07:33:35;;;;;;;8.70;6.92;;;;;;;28.12;62.18;99384.03;1712371;83;21093;-74
2022/08/07 07:36:02;;;;;;;6.83;6.17;;;;;;;28.20;63.16;99385.83;1710977;83;22481;-74
2022/08/07 07:38:29;;;;;;;9.33;6.50;;;;;;;28.29;62.74;99391.45;1712961;83;20962;-74
2022/08/07 07:41:00;;;;;;;8.98;6.60;;;;;;;28.38;61.27;99387.18;1713441;83;21532;-74
2022/08/07 07:43:27;;;;;;;7.37;6.67;;;;;;;28.42;62.25;99389.83;1712130;83;21477;-74
2022/08/07 07:45:54;;;;;;;7.58;6.50;;;;;;;28.44;61.50;99387.81;1713548;83;20967;-74
2022/08/07 07:48:21;;;;;;;9.38;6.30;;;;;;;28.43;61.78;99390.66;1716718;83;21134;-73
2022/08/07 07:50:49;;;;;;;10.48;6.78;;;;;;;28.49;60.80;99387.28;1717065;83;21494;-74
2022/08/07 07:53:17;;;;;;;6.72;6.00;;;;;;;28.58;60.90;99384.84;1715675;83;21062;-74
2022/08/07 07:55:44;;;;;;;8.38;6.12;;;;;;;28.65;59.79;99384.45;1713266;82;21119;-74
2022/08/07 07:58:11;;;;;;;9.53;6.58;;;;;;;28.73;59.36;99386.23;1715703;83;20957;-74
2022/08/07 08:00:38;;;;;;;7.75;6.47;;;;;;;28.83;59.06;99388.16;1716059;83;21020;-74
2022/08/07 08:03:10;;;;;;;8.15;6.30;;;;;;;28.93;59.22;99385.23;1713003;82;20973;-74
2022/08/07 08:05:40;;;;;;;6.47;5.87;;;;;;;28.99;58.94;99383.97;1715456;82;21022;-74
2022/08/07 08:08:09;;;;;;;6.62;6.05;;;;;;;29.08;58.06;99386.06;1717290;83;21069;-74
2022/08/07 08:10:36;;;;;;;6.83;5.92;;;;;;;29.16;58.32;99380.62;1714405;83;21053;-74
2022/08/07 08:13:04;;;;;;;6.03;5.60;;;;;;;29.26;57.83;99383.02;1690134;83;21546;-74
2022/08/07 08:15:34;;;;;;;6.83;6.03;;;;;;;29.32;57.99;99379.60;1691314;83;21011;-74
2022/08/07 08:18:01;;;;;;;6.55;6.05;;;;;;;29.35;56.66;99378.73;1689617;83;21096;-72
2022/08/07 08:20:29;;;;;;;7.42;6.72;;;;;;;29.41;55.94;99379.84;1709938;82;21029;-73
2022/08/07 08:28:27;;;;;;;5.95;5.40;;;;;;;29.66;53.93;99374.49;1719410;83;21061;-73
2022/08/07 08:30:57;;;;;;;6.37;5.83;;;;;;;29.73;51.15;99383.97;1715367;83;21028;-73
2022/08/07 08:33:27;;;;;;;7.03;5.75;;;;;;;29.73;52.74;99379.44;1714633;83;21560;-73
2022/08/07 08:35:54;;;;;;;6.00;5.53;;;;;;;29.77;53.21;99378.55;1711179;83;20958;-73
2022/08/07 08:38:27;;;;;;;5.75;5.25;;;;;;;29.84;53.13;99372.73;1714192;83;21513;-73
2022/08/07 08:41:01;;;;;;;8.65;5.22;;;;;;;29.87;52.38;99365.66;1711716;83;21014;-73
2022/08/07 08:43:39;;;;;;;6.40;5.00;;;;;;;29.86;51.38;99369.87;1711240;83;21577;-73
2022/08/07 08:46:25;;;;;;;5.72;5.20;;;;;;;29.87;49.74;99367.51;1714696;83;21005;-74
2022/08/07 08:49:10;;;;;;;6.40;5.85;;;;;;;29.89;49.56;99372.17;1709163;83;20990;-73
2022/08/07 08:52:00;;;;;;;5.62;5.25;;;;;;;29.95;50.98;99370.08;1656583;85;21263;-74
2022/08/07 08:54:50;;;;;;;6.20;5.80;;;;;;;30.06;51.15;99372.28;1710301;83;21066;-74
2022/08/07 08:57:22;;;;;;;9.08;5.70;;;;;;;30.15;50.24;99377.34;1713946;82;21017;-74
2022/08/07 09:00:05;;;;;;;5.97;5.47;;;;;;;30.20;49.99;99371.89;1718050;83;21021;-74
2022/08/07 09:03:01;;;;;;;6.95;5.53;;;;;;;30.29;49.45;99374.77;1715033;83;20979;-73
2022/08/07 09:05:54;;;;;;;5.80;5.30;;;;;;;30.38;49.61;99374.94;1711166;83;21248;-74
2022/08/07 09:08:42;;;;;;;5.78;5.37;;;;;;;30.38;47.09;99369.58;1716748;82;20981;-74
2022/08/07 09:11:18;;;;;;;5.85;5.22;;;;;;;30.39;47.75;99367.21;1711855;83;21528;-74
2022/08/07 09:13:59;;;;;;;5.80;5.30;;;;;;;30.46;47.61;99367.59;1710881;83;21093;-74
2022/08/07 09:16:37;;;;;;;6.28;5.70;;;;;;;30.47;46.73;99361.20;1715117;83;21592;-74
2022/08/07 09:19:21;;;;;;;6.12;5.67;;;;;;;30.49;46.48;99356.48;1716466;83;21399;-74
2022/08/07 09:22:14;;;;;;;5.87;5.30;;;;;;;30.54;47.01;99355.91;1718313;83;21151;-73
2022/08/07 09:25:11;;;;;;;6.42;5.83;;;;;;;30.61;46.21;99352.77;1712592;83;21022;-74
2022/08/07 09:27:52;;;;;;;6.35;5.60;;;;;;;30.73;45.41;99343.17;1712708;83;21022;-74
2022/08/07 09:30:19;;;;;;;7.70;5.80;;;;;;;30.84;46.09;99341.27;1713074;83;21099;-73
2022/08/07 09:33:09;;;;;;;6.45;5.83;;;;;;;30.93;46.73;99332.56;1714162;83;21106;-74
2022/08/07 09:35:53;;;;;;;5.80;5.40;;;;;;;31.02;45.05;99330.01;1717465;83;21576;-73
2022/08/07 09:38:43;;;;;;;6.35;5.75;;;;;;;31.09;44.84;99323.34;1718402;83;21556;-73
2022/08/07 09:41:24;;;;;;;6.95;5.55;;;;;;;31.10;44.22;99320.45;1712962;83;22286;-73
2022/08/07 09:44:26;;;;;;;8.00;5.10;;;;;;;31.12;44.05;99314.41;1716129;82;20969;-74
2022/08/07 09:47:04;;;;;;;6.15;5.55;;;;;;;31.19;43.61;99314.41;1718238;83;21817;-74
2022/08/07 09:49:42;;;;;;;5.97;5.58;;;;;;;31.25;42.97;99314.14;1719000;83;21171;-74
2022/08/07 09:52:29;;;;;;;6.70;5.22;;;;;;;31.31;44.25;99315.52;1710965;83;21113;-73
2022/08/07 09:55:51;;;;;;;6.58;6.08;;;;;;;31.43;43.71;99318.45;1714682;83;21230;-75
2022/08/07 09:58:58;;;;;;;6.45;5.78;;;;;;;31.46;43.57;99321.56;1713236;83;21160;-73
2022/08/07 10:01:39;;;;;;;6.00;5.47;;;;;;;31.48;43.59;99316.82;1713308;83;21111;-72
2022/08/07 10:04:34;;;;;;;6.87;6.28;;;;;;;31.52;43.41;99315.91;1712605;83;21520;-73
2022/08/07 10:07:35;;;;;;;6.62;6.00;;;;;;;31.57;43.03;99308.08;1713413;83;21001;-73
2022/08/07 10:10:30;;;;;;;6.28;5.75;;;;;;;31.71;42.74;99307.09;1717832;83;21033;-73
2022/08/07 10:13:29;;;;;;;6.67;6.05;;;;;;;31.85;42.35;99310.62;1715551;83;21052;-74
2022/08/07 10:16:13;;;;;;;6.90;6.17;;;;;;;31.84;42.73;99309.80;1713230;83;21286;-73
2022/08/07 10:19:16;;;;;;;6.42;5.85;;;;;;;31.78;42.24;99297.16;1708362;83;21454;-73
2022/08/07 10:22:22;;;;;;;6.90;5.90;;;;;;;31.78;42.23;99297.16;1718140;83;21077;-73
2022/08/07 10:25:17;;;;;;;7.10;6.40;;;;;;;31.78;41.28;99290.44;1713478;83;21194;-74
2022/08/07 10:28:17;;;;;;;7.12;6.45;;;;;;;31.78;41.95;99290.44;1714675;83;21099;-73
2022/08/07 10:31:04;;;;;;;6.53;6.00;;;;;;;31.67;41.75;99288.88;1672503;83;21143;-73
2022/08/07 10:34:17;;;;;;;6.62;6.12;;;;;;;31.53;42.66;99283.13;1716908;83;21037;-73
2022/08/07 10:37:07;;;;;;;6.55;5.90;;;;;;;31.52;42.51;99283.66;1717288;83;20966;-73
2022/08/07 10:40:13;;;;;;;7.87;6.05;;;;;;;31.52;43.29;99284.99;1709562;83;21042;-72
2022/08/07 10:43:03;;;;;;;6.30;5.80;;;;;;;31.41;44.09;99277.50;1713909;83;20954;-73
2022/08/07 10:45:49;;;;;;;13.98;7.62;;;;;;;31.34;44.68;99278.84;1717672;83;21191;-74
2022/08/07 10:48:47;;;;;;;7.03;6.37;;;;;;;31.33;44.83;99287.11;1714245;83;21517;-74
2022/08/07 10:51:29;;;;;;;7.53;5.90;;;;;;;31.32;44.63;99287.62;1713500;83;21414;-73
2022/08/07 10:54:14;;;;;;;;;;;;;;;31.30;44.85;99293.70;1718160;83;21017;-73
2022/08/07 10:57:26;;;;;;;9.13;6.20;;;;;;;31.31;45.52;99303.42;1718333;83;20460;-73
2022/08/07 11:00:11;;;;;;;6.75;5.80;;;;;;;31.28;45.84;99295.77;1714646;83;21129;-73
2022/08/07 11:02:56;;;;;;;9.33;6.85;;;;;;;31.24;46.20;99286.95;1708273;83;21011;-74
2022/08/07 11:06:04;;;;;;;9.45;7.22;;;;;;;31.18;46.31;99275.97;1711537;83;20986;-73
2022/08/07 11:08:51;;;;;;;11.25;7.03;;;;;;;31.12;46.11;99274.11;1711251;83;21026;-73
2022/08/07 11:11:33;;;;;;;6.60;6.03;;;;;;;31.07;45.57;99281.07;1714931;83;21009;-73
2022/08/07 11:14:23;;;;;;;7.25;6.37;;;;;;;31.01;44.80;99290.75;1719087;82;21255;-74
2022/08/07 11:17:08;;;;;;;9.13;6.95;;;;;;;30.93;44.63;99288.24;1712220;83;21136;-74
2022/08/07 11:19:41;;;;;;;8.15;6.17;;;;;;;30.86;44.93;99292.73;1714487;83;21040;-74
2022/08/07 11:22:33;;;;;;;10.32;6.37;;;;;;;30.81;45.26;99306.75;1707863;83;20990;-73
2022/08/07 11:25:26;;;;;;;11.50;8.13;;;;;;;30.70;46.15;99336.84;1712822;83;21041;-74
2022/08/07 11:28:22;;;;;;;10.63;7.85;;;;;;;30.24;49.25;99338.30;1712243;83;21728;-74
2022/08/07 11:31:11;;;;;;;13.50;7.90;;;;;;;29.54;50.87;99326.43;1710099;83;21014;-73
2022/08/07 11:33:42;;;;;;;7.03;6.33;;;;;;;28.89;52.11;99353.97;1714074;83;21005;-73
2022/08/07 11:36:34;;;;;;;8.10;7.10;;;;;;;27.81;53.70;99347.95;1713181;83;21011;-73
2022/08/07 11:39:39;;;;;;;16.82;7.50;;;;;;;26.97;56.74;99347.34;1717935;83;21020;-73
2022/08/07 11:42:14;;;;;;;10.05;6.83;;;;;;;26.27;59.69;99338.52;1712679;83;21273;-73
2022/08/07 11:45:04;;;;;;;16.85;7.58;;;;;;;25.82;62.14;99337.64;1713483;83;21443;-74
2022/08/07 11:48:07;;;;;;;9.95;7.50;;;;;;;25.51;64.53;99333.39;1713453;83;21010;-73
2022/08/07 11:51:18;;;;;;;11.43;8.00;;;;;;;25.26;66.53;99337.79;1712898;83;21033;-73
2022/08/07 11:54:07;;;;;;;8.65;7.95;;;;;;;25.06;68.43;99341.20;1715559;83;21100;-73
2022/08/07 11:57:23;;;;;;;8.90;8.00;;;;;;;24.96;71.34;99340.99;1703595;83;21197;-73
2022/08/07 12:00:12;;;;;;;8.80;8.03;;;;;;;24.83;73.18;99357.33;1711020;83;20962;-74
2022/08/07 12:03:02;;;;;;;16.87;8.78;;;;;;;24.70;74.76;99358.25;1712939;83;21045;-73
2022/08/07 12:05:43;;;;;;;11.55;9.78;;;;;;;24.58;76.39;99368.81;1714540;83;21010;-74
2022/08/07 12:08:18;;;;;;;13.68;8.65;;;;;;;24.48;78.27;99385.34;1712026;83;21073;-75